»·PEaware :: AAY1424 KMFR-KLAX

AAY1424 :: KMFR-KLAX

FLIGHT INFORMATION

Flight Status: Arrived
Operator:
Allegiant Air
More flights by this operator :: More flights under this callsign
Pilot: Mike B. (36914)
Aircraft: MCDONNELL-DOUGLAS MD-82
(MD82)
More flights by this aircraft type
Origin: KMFR Rogue Valley Intl-Medford
United States
Destination: KLAX Los Angeles Intl
United States
More flights between these airports :: More routes between these airports
Route: JKSN1 OED RBL SAC BURGL IRNMN2
File this flight plan on PilotEdge
Remarks: RMK / SIMBRIEF / Twitch.tv / moosestaffa - not currently streaming
Altitude:
(Current/Filed)
35,000ft
Speed:
(Current/Filed)
448kts
Departed: 12-Sep-22 06:30 PM
Arrived: 12-Sep-22 08:03 PM
Distance/Time
Traveled:
548nm/1:32
Distance/Time
To Go:
Arrived

Flight Plot

Page will automatically refresh every two minutes.

Flight plan parsing failed; only flown route is shown


Map Options




Map Legend


Flown Route
Filed Route
Departure Airport
Arrival Airport
Navaid (VOR, NDB)
Fix

Horizontal Profiles

Position Reports

Time Latitude Longitude Heading Altitude Ground
Speed
12-Sep-22 17:41 42.368217 -122.873117 248 1334ft 0kts
12-Sep-22 17:42 42.368217 -122.873117 248 1334ft 0kts
12-Sep-22 17:43 42.368217 -122.873117 248 1334ft 0kts
12-Sep-22 17:44 42.368217 -122.873117 248 1334ft 0kts
12-Sep-22 17:45 42.368217 -122.873117 248 1334ft 0kts
12-Sep-22 17:47 42.368217 -122.873117 248 1334ft 0kts
12-Sep-22 17:48 42.368217 -122.873117 248 1334ft 0kts
12-Sep-22 17:49 42.368217 -122.873117 248 1334ft 0kts
12-Sep-22 17:50 42.368217 -122.873117 248 1334ft 0kts
12-Sep-22 17:51 42.368217 -122.873117 248 1334ft 0kts
12-Sep-22 17:52 42.368217 -122.873117 248 1334ft 0kts
12-Sep-22 17:53 42.368217 -122.873117 248 1334ft 0kts
12-Sep-22 17:54 42.368217 -122.873117 248 1334ft 0kts
12-Sep-22 17:55 42.368217 -122.873117 248 1334ft 0kts
12-Sep-22 17:56 42.368217 -122.873117 248 1334ft 0kts
12-Sep-22 17:57 42.368217 -122.873117 248 1334ft 0kts
12-Sep-22 17:58 42.368217 -122.873117 248 1334ft 0kts
12-Sep-22 17:59 42.368217 -122.873117 248 1334ft 0kts
12-Sep-22 18:00 42.368217 -122.873117 248 1334ft 0kts
12-Sep-22 18:01 42.368217 -122.873117 248 1334ft 0kts
12-Sep-22 18:02 42.368217 -122.873117 248 1334ft 0kts
12-Sep-22 18:03 42.368217 -122.873117 248 1334ft 0kts
12-Sep-22 18:04 42.368217 -122.873117 248 1334ft 0kts
12-Sep-22 18:05 42.368217 -122.873117 248 1334ft 0kts
12-Sep-22 18:06 42.368217 -122.873117 248 1334ft 0kts
12-Sep-22 18:07 42.368217 -122.873117 248 1334ft 0kts
12-Sep-22 18:07 42.368217 -122.873117 248 1334ft 0kts
12-Sep-22 18:09 42.368217 -122.873117 248 1334ft 0kts
12-Sep-22 18:10 42.368217 -122.873117 248 1334ft 0kts
12-Sep-22 18:11 42.368217 -122.873117 248 1334ft 0kts
12-Sep-22 18:11 42.368217 -122.873117 248 1334ft 0kts
12-Sep-22 18:12 42.368217 -122.873117 248 1334ft 0kts
12-Sep-22 18:14 42.368217 -122.873117 248 1334ft 0kts
12-Sep-22 18:15 42.368217 -122.873117 248 1334ft 0kts
12-Sep-22 18:16 42.368217 -122.873117 248 1334ft 0kts
12-Sep-22 18:16 42.368217 -122.873117 248 1334ft 0kts
12-Sep-22 18:17 42.368217 -122.873117 248 1334ft 0kts
12-Sep-22 18:19 42.368217 -122.873117 248 1334ft 0kts
12-Sep-22 18:20 42.368217 -122.873117 248 1334ft 0kts
12-Sep-22 18:20 42.368217 -122.873117 248 1334ft 0kts
12-Sep-22 18:21 42.368432 -122.872742 212 1341ft 2kts
12-Sep-22 18:22 42.368675 -122.872530 212 1341ft 0kts
12-Sep-22 18:23 42.368675 -122.872530 212 1341ft 0kts
12-Sep-22 18:24 42.368675 -122.872530 212 1334ft 0kts
12-Sep-22 18:25 42.368390 -122.871963 89 1334ft 5kts
12-Sep-22 18:26 42.365578 -122.869965 159 1341ft 18kts
12-Sep-22 18:27 42.363548 -122.868579 96 1347ft 7kts
12-Sep-22 18:28 42.364434 -122.867793 339 1342ft 17kts
12-Sep-22 18:30 42.403940 -122.885444 342 2816ft 176kts
12-Sep-22 18:30 42.446419 -122.897938 346 4063ft 205kts
12-Sep-22 18:31 42.507476 -122.923265 333 5611ft 250kts
12-Sep-22 18:32 42.577876 -122.936439 19 7688ft 266kts
12-Sep-22 18:33 42.605419 -122.854188 113 9645ft 257kts
12-Sep-22 18:34 42.549913 -122.807734 172 11106ft 258kts
12-Sep-22 18:35 42.476837 -122.790683 172 12935ft 274kts
12-Sep-22 18:36 42.390814 -122.770250 172 13207ft 349kts
12-Sep-22 18:37 42.291939 -122.745465 171 15067ft 367kts
12-Sep-22 18:38 42.189636 -122.720299 172 17134ft 380kts
12-Sep-22 18:39 42.083737 -122.695159 172 19035ft 391kts
12-Sep-22 18:40 41.975589 -122.669594 173 20855ft 399kts
12-Sep-22 18:41 41.865110 -122.643225 172 22661ft 406kts
12-Sep-22 18:42 41.752377 -122.616642 173 24226ft 416kts
12-Sep-22 18:43 41.637144 -122.589910 173 25595ft 424kts
12-Sep-22 18:44 41.519903 -122.562024 172 26854ft 434kts
12-Sep-22 18:45 41.399793 -122.533404 172 28088ft 443kts
12-Sep-22 18:46 41.278030 -122.505197 172 29639ft 443kts
12-Sep-22 18:47 41.157074 -122.477292 172 31149ft 438kts
12-Sep-22 18:48 41.037410 -122.449173 172 32464ft 437kts
12-Sep-22 18:49 40.918163 -122.421636 172 33850ft 433kts
12-Sep-22 18:50 40.799875 -122.394961 172 34786ft 434kts
12-Sep-22 18:51 40.678399 -122.366995 172 34858ft 449kts
12-Sep-22 18:52 40.556478 -122.338824 172 34856ft 443kts
12-Sep-22 18:53 40.434626 -122.309563 168 34858ft 448kts
12-Sep-22 18:54 40.313408 -122.272824 172 34865ft 446kts
12-Sep-22 18:55 40.191137 -122.248419 174 34875ft 445kts
12-Sep-22 18:56 40.068620 -122.224754 168 34838ft 447kts
12-Sep-22 18:57 39.949856 -122.175004 163 34858ft 448kts
12-Sep-22 18:58 39.832132 -122.122948 164 34855ft 447kts
12-Sep-22 18:59 39.713175 -122.073026 164 34859ft 450kts
12-Sep-22 19:00 39.594136 -122.023752 164 34852ft 449kts
12-Sep-22 19:01 39.475098 -121.973600 164 34856ft 450kts
12-Sep-22 19:02 39.355411 -121.923740 165 34854ft 451kts
12-Sep-22 19:03 39.236223 -121.874974 165 34856ft 450kts
12-Sep-22 19:04 39.116512 -121.825366 164 34867ft 452kts
12-Sep-22 19:05 38.996582 -121.775724 164 34864ft 453kts
12-Sep-22 19:06 38.876632 -121.727011 164 34870ft 453kts
12-Sep-22 19:07 38.756217 -121.677979 164 34866ft 454kts
12-Sep-22 19:08 38.635934 -121.628584 164 34873ft 454kts
12-Sep-22 19:09 38.515070 -121.579845 165 34882ft 455kts
12-Sep-22 19:10 38.395191 -121.526931 159 34886ft 457kts
12-Sep-22 19:11 38.278516 -121.461600 158 34885ft 460kts
12-Sep-22 19:12 38.160766 -121.397431 159 34889ft 461kts
12-Sep-22 19:13 38.042606 -121.334824 160 34896ft 461kts
12-Sep-22 19:14 37.923904 -121.271760 159 34901ft 461kts
12-Sep-22 19:15 37.805729 -121.208395 159 34901ft 462kts
12-Sep-22 19:16 37.687036 -121.145649 160 34894ft 462kts
12-Sep-22 19:17 37.568452 -121.083499 160 34892ft 463kts
12-Sep-22 19:18 37.449905 -121.020558 160 34893ft 463kts
12-Sep-22 19:19 37.330723 -120.958001 160 34892ft 464kts
12-Sep-22 19:20 37.210803 -120.895892 160 34905ft 467kts
12-Sep-22 19:21 37.091064 -120.833083 160 34903ft 466kts
12-Sep-22 19:22 36.971620 -120.770885 160 34909ft 466kts
12-Sep-22 19:23 36.850835 -120.708979 161 34910ft 470kts
12-Sep-22 19:24 36.730557 -120.646740 160 34910ft 469kts
12-Sep-22 19:25 36.609639 -120.584266 161 34903ft 469kts
12-Sep-22 19:26 36.488522 -120.522768 161 34905ft 473kts
12-Sep-22 19:27 36.366740 -120.460635 161 34909ft 472kts
12-Sep-22 19:28 36.245357 -120.398473 161 34899ft 472kts
12-Sep-22 19:29 36.123156 -120.336916 161 34903ft 476kts
12-Sep-22 19:30 36.000413 -120.275147 161 34901ft 476kts
12-Sep-22 19:31 35.877847 -120.212967 161 34890ft 476kts
12-Sep-22 19:32 35.754603 -120.151399 162 34900ft 480kts
12-Sep-22 19:33 35.632600 -120.083664 153 34901ft 484kts
12-Sep-22 19:34 35.517950 -119.995184 151 34915ft 489kts
12-Sep-22 19:35 35.402183 -119.907566 152 34912ft 487kts
12-Sep-22 19:36 35.286314 -119.821437 149 34933ft 490kts
12-Sep-22 19:37 35.177557 -119.719626 144 34777ft 497kts
12-Sep-22 19:38 35.069583 -119.618258 146 33026ft 475kts
12-Sep-22 19:39 34.966672 -119.523632 145 30961ft 456kts
12-Sep-22 19:40 34.865910 -119.432020 145 28101ft 449kts
12-Sep-22 19:41 34.765873 -119.342984 145 25223ft 441kts
12-Sep-22 19:42 34.667818 -119.256992 145 22569ft 419kts
12-Sep-22 19:43 34.575630 -119.177363 145 20618ft 398kts
12-Sep-22 19:44 34.487187 -119.099471 143 18771ft 386kts
12-Sep-22 19:45 34.401594 -119.023899 144 16690ft 374kts
12-Sep-22 19:46 34.318817 -118.952048 142 14584ft 359kts
12-Sep-22 19:47 34.240776 -118.880737 142 12827ft 344kts
12-Sep-22 19:48 34.168865 -118.814303 141 12382ft 310kts
12-Sep-22 19:49 34.104002 -118.744914 136 10902ft 312kts
12-Sep-22 19:50 34.042570 -118.674837 121 9589ft 289kts
12-Sep-22 19:51 34.022806 -118.583606 99 8179ft 276kts
12-Sep-22 19:52 34.013326 -118.496323 95 7065ft 245kts
12-Sep-22 19:53 34.015863 -118.416942 77 5649ft 236kts
12-Sep-22 19:54 34.029338 -118.340581 81 4043ft 230kts
12-Sep-22 19:55 34.037900 -118.265539 82 3061ft 221kts
12-Sep-22 19:56 34.035585 -118.194487 145 2995ft 222kts
12-Sep-22 19:57 33.979366 -118.196288 236 3019ft 220kts
12-Sep-22 19:58 33.966713 -118.259114 264 2309ft 175kts
12-Sep-22 19:59 33.961711 -118.308818 263 1516ft 137kts
12-Sep-22 20:00 33.956958 -118.354338 262 884ft 135kts
12-Sep-22 20:01 33.952329 -118.399807 263 199ft 136kts
12-Sep-22 20:02 33.949303 -118.425464 242 125ft 26kts
12-Sep-22 20:03 33.946339 -118.427225 87 125ft 11kts
12-Sep-22 20:04 33.946991 -118.420790 82 124ft 23kts
12-Sep-22 20:05 33.947830 -118.413389 100 126ft 18kts
12-Sep-22 20:06 33.947722 -118.407021 83 126ft 19kts
12-Sep-22 20:07 33.947193 -118.404869 128 124ft 0kts
12-Sep-22 20:08 33.947193 -118.404869 128 126ft 0kts
12-Sep-22 20:09 33.947193 -118.404869 128 126ft 0kts
12-Sep-22 20:10 33.947193 -118.404869 128 126ft 0kts
12-Sep-22 20:11 33.947193 -118.404869 128 126ft 0kts
12-Sep-22 20:12 33.947193 -118.404869 128 126ft 0kts
12-Sep-22 20:13 33.947193 -118.404869 128 126ft 0kts
12-Sep-22 20:14 33.947193 -118.404869 128 126ft 0kts
12-Sep-22 20:15 33.947193 -118.404869 128 126ft 0kts
12-Sep-22 20:16 33.947193 -118.404869 128 126ft 0kts

Navigation Log

Ident Type
Flight plan parsing failed, navigation log unavailable